createdAt,value
2022-12-24T00:00:39.658Z,0
2022-12-24T00:01:55.954Z,0
2022-12-24T00:03:12.244Z,0
2022-12-24T00:04:28.548Z,0
2022-12-24T00:05:44.837Z,0
2022-12-24T00:07:01.124Z,0
2022-12-24T00:08:17.417Z,0
2022-12-24T00:09:33.703Z,0
2022-12-24T00:10:49.008Z,0
2022-12-24T00:12:05.306Z,0
2022-12-24T00:13:21.593Z,0
2022-12-24T00:14:37.897Z,0
2022-12-24T00:15:54.199Z,0
2022-12-24T00:17:10.479Z,0
2022-12-24T00:18:26.768Z,0
2022-12-24T00:19:43.067Z,0
2022-12-24T00:20:59.355Z,0
2022-12-24T00:22:15.659Z,0
2022-12-24T00:23:31.936Z,0
2022-12-24T00:24:48.234Z,0
2022-12-24T00:26:04.529Z,0
2022-12-24T00:27:19.849Z,0
2022-12-24T00:28:36.128Z,0
2022-12-24T00:29:52.438Z,0
2022-12-24T00:31:08.716Z,0
2022-12-24T00:32:25.012Z,0
2022-12-24T00:33:41.302Z,0
2022-12-24T00:34:57.601Z,0
2022-12-24T00:36:13.899Z,0
2022-12-24T00:37:30.178Z,0
2022-12-24T00:38:46.478Z,0
2022-12-24T00:40:02.760Z,0
2022-12-24T00:41:19.067Z,0
2022-12-24T00:42:35.353Z,0
2022-12-24T00:43:50.665Z,0
2022-12-24T00:45:06.951Z,0
2022-12-24T00:46:23.255Z,0
2022-12-24T00:47:39.542Z,0
2022-12-24T00:48:55.842Z,0
2022-12-24T00:50:12.126Z,0
2022-12-24T00:51:28.426Z,0
2022-12-24T00:52:44.704Z,0
2022-12-24T00:54:01.010Z,0
2022-12-24T00:55:17.307Z,0
2022-12-24T00:56:33.598Z,0
2022-12-24T00:57:49.893Z,0
2022-12-24T00:59:06.185Z,0
2022-12-24T01:00:21.480Z,0
2022-12-24T01:01:37.783Z,0
2022-12-24T01:02:54.072Z,0
2022-12-24T01:04:10.362Z,0
2022-12-24T01:05:26.654Z,0
2022-12-24T01:06:42.957Z,0
2022-12-24T01:07:59.241Z,0
2022-12-24T01:09:15.540Z,0
2022-12-24T01:10:31.820Z,0
2022-12-24T01:11:48.114Z,0
2022-12-24T01:13:04.415Z,0
2022-12-24T01:14:20.710Z,0
2022-12-24T01:15:36.988Z,0
2022-12-24T01:16:52.306Z,0
2022-12-24T01:18:08.599Z,0
2022-12-24T01:19:24.896Z,0
2022-12-24T01:20:41.177Z,0
2022-12-24T01:21:57.477Z,0
2022-12-24T01:23:13.761Z,0
2022-12-24T01:24:30.060Z,0
2022-12-24T01:25:46.346Z,0
2022-12-24T01:27:02.655Z,0
2022-12-24T01:28:18.950Z,0
2022-12-24T01:29:35.223Z,0
2022-12-24T01:30:51.524Z,0
2022-12-24T01:32:07.815Z,0
2022-12-24T01:33:23.138Z,0
2022-12-24T01:34:39.415Z,0
2022-12-24T01:35:55.723Z,0
2022-12-24T01:37:12.000Z,0
2022-12-24T01:38:28.307Z,0
2022-12-24T01:39:44.595Z,0
2022-12-24T01:41:00.890Z,0
2022-12-24T01:42:17.167Z,0
2022-12-24T01:43:33.475Z,0
2022-12-24T01:44:49.760Z,0
2022-12-24T01:46:06.048Z,0
2022-12-24T01:47:22.339Z,0
2022-12-24T01:48:38.647Z,0
2022-12-24T01:49:53.960Z,0
2022-12-24T01:51:10.247Z,0
2022-12-24T01:52:26.539Z,0
2022-12-24T01:53:42.828Z,0
2022-12-24T01:54:59.123Z,0
2022-12-24T01:56:15.424Z,0
2022-12-24T01:57:31.716Z,0
2022-12-24T01:58:48.001Z,0
2022-12-24T02:00:04.289Z,0
2022-12-24T02:01:20.596Z,0
2022-12-24T02:02:36.887Z,0
2022-12-24T02:03:53.165Z,0
2022-12-24T02:05:09.458Z,0
2022-12-24T02:06:24.783Z,0
2022-12-24T02:07:41.058Z,0
2022-12-24T02:08:57.361Z,0
2022-12-24T02:10:13.645Z,0
2022-12-24T02:11:29.951Z,0
2022-12-24T02:12:46.241Z,0
2022-12-24T02:14:02.526Z,0
2022-12-24T02:15:18.830Z,0
2022-12-24T02:16:35.111Z,0
2022-12-24T02:17:51.412Z,0
2022-12-24T02:19:07.711Z,0
2022-12-24T02:20:23.997Z,0
2022-12-24T02:21:40.292Z,0
2022-12-24T02:22:55.587Z,0
2022-12-24T02:24:11.888Z,0
2022-12-24T02:25:28.183Z,0
2022-12-24T02:26:44.468Z,0
2022-12-24T02:29:17.067Z,0
2022-12-24T02:30:33.347Z,0
2022-12-24T02:31:49.644Z,0
2022-12-24T02:33:05.941Z,0
2022-12-24T02:34:22.235Z,0
2022-12-24T02:35:38.527Z,0
2022-12-24T02:36:54.826Z,0
2022-12-24T02:38:11.120Z,0
2022-12-24T02:39:26.411Z,0
2022-12-24T02:40:42.720Z,0
2022-12-24T02:41:59.005Z,0
2022-12-24T02:43:15.303Z,0
2022-12-24T02:44:31.581Z,0
2022-12-24T02:45:47.878Z,0
2022-12-24T02:47:04.000Z,0
2022-12-24T02:48:20.462Z,0
2022-12-24T02:49:36.760Z,0
2022-12-24T02:50:53.065Z,0
2022-12-24T02:52:09.352Z,0
2022-12-24T02:53:25.650Z,0
2022-12-24T02:54:41.925Z,0
2022-12-24T02:55:57.243Z,0
2022-12-24T02:57:13.540Z,0
2022-12-24T02:58:29.823Z,0
2022-12-24T02:59:46.117Z,0
2022-12-24T03:01:02.422Z,0
2022-12-24T03:02:18.718Z,0
2022-12-24T03:03:35.005Z,0
2022-12-24T03:04:51.286Z,0
2022-12-24T03:06:07.589Z,0
2022-12-24T03:07:23.872Z,0
2022-12-24T03:08:40.181Z,0
2022-12-24T03:09:56.467Z,0
2022-12-24T03:11:12.768Z,0
2022-12-24T03:12:28.075Z,0
2022-12-24T03:13:44.353Z,0
2022-12-24T03:15:00.657Z,0
2022-12-24T03:16:16.937Z,0
2022-12-24T03:17:33.237Z,0
2022-12-24T03:18:49.537Z,0
2022-12-24T03:20:05.823Z,0
2022-12-24T03:21:22.105Z,0
2022-12-24T03:22:38.402Z,0
2022-12-24T03:23:54.699Z,0
2022-12-24T03:25:10.995Z,0
2022-12-24T03:26:27.280Z,0
2022-12-24T03:27:43.570Z,0
2022-12-24T03:28:58.883Z,0
2022-12-24T03:30:15.179Z,0
2022-12-24T03:31:31.480Z,0
2022-12-24T03:32:47.772Z,0
2022-12-24T03:34:04.056Z,0
2022-12-24T03:35:20.349Z,0
2022-12-24T03:36:36.650Z,0
2022-12-24T03:37:52.943Z,0
2022-12-24T03:39:09.222Z,0
2022-12-24T03:40:25.520Z,0
2022-12-24T03:41:41.811Z,0
2022-12-24T03:42:58.110Z,0
2022-12-24T03:44:14.394Z,0
2022-12-24T03:45:29.705Z,0
2022-12-24T03:46:46.001Z,0
2022-12-24T03:48:02.291Z,0
2022-12-24T03:49:18.583Z,0
2022-12-24T03:50:34.886Z,0
2022-12-24T03:51:51.181Z,0
2022-12-24T03:53:06.497Z,0
2022-12-24T03:54:22.777Z,0
2022-12-24T03:55:39.077Z,0
2022-12-24T03:56:55.371Z,0
2022-12-24T03:58:11.655Z,0
2022-12-24T03:59:27.948Z,0
2022-12-24T04:00:44.254Z,0
2022-12-24T04:02:00.544Z,0
2022-12-24T04:03:16.833Z,0
2022-12-24T04:04:33.114Z,0
2022-12-24T04:05:49.409Z,0
2022-12-24T04:07:05.717Z,0
2022-12-24T04:08:22.002Z,0
2022-12-24T04:09:37.317Z,0
2022-12-24T04:10:53.598Z,0
2022-12-24T04:12:09.905Z,0
2022-12-24T04:13:26.197Z,0
2022-12-24T04:14:42.489Z,0
2022-12-24T04:15:58.778Z,0
2022-12-24T04:17:15.073Z,0
2022-12-24T04:18:31.363Z,0
2022-12-24T04:19:47.651Z,0
2022-12-24T04:21:03.947Z,0
2022-12-24T04:22:20.248Z,0
2022-12-24T04:23:36.523Z,0
2022-12-24T04:24:52.824Z,0
2022-12-24T04:26:08.122Z,0
2022-12-24T04:27:24.425Z,0
2022-12-24T04:28:40.724Z,0
2022-12-24T04:29:57.006Z,0
2022-12-24T04:31:13.308Z,0
2022-12-24T04:32:29.598Z,0
2022-12-24T04:33:45.882Z,0
2022-12-24T04:35:02.190Z,0
2022-12-24T04:36:18.467Z,0
2022-12-24T04:37:34.761Z,0
2022-12-24T04:38:51.055Z,0
2022-12-24T04:40:07.346Z,0
2022-12-24T04:41:23.645Z,0
2022-12-24T04:42:38.962Z,0
2022-12-24T04:43:55.243Z,0
2022-12-24T04:45:11.545Z,0
2022-12-24T04:46:27.844Z,0
2022-12-24T04:47:44.119Z,0
2022-12-24T04:49:00.413Z,0
2022-12-24T04:50:16.721Z,0
2022-12-24T04:51:33.011Z,0
2022-12-24T04:52:49.287Z,0
2022-12-24T04:54:05.598Z,0
2022-12-24T04:55:21.892Z,0
2022-12-24T04:56:38.178Z,0
2022-12-24T04:57:54.462Z,0
2022-12-24T04:59:09.785Z,0
2022-12-24T05:00:26.077Z,0
2022-12-24T05:01:42.368Z,0
2022-12-24T05:02:58.658Z,0
2022-12-24T05:04:14.940Z,0
2022-12-24T05:05:31.235Z,0
2022-12-24T05:06:47.543Z,0
2022-12-24T05:08:03.826Z,0
2022-12-24T05:10:36.404Z,0
2022-12-24T05:11:52.703Z,0
2022-12-24T05:13:09.002Z,0
2022-12-24T05:14:25.292Z,0
2022-12-24T05:15:40.596Z,0
2022-12-24T05:16:56.898Z,0
2022-12-24T05:18:13.190Z,0
2022-12-24T05:19:29.470Z,0
2022-12-24T05:20:45.772Z,0
2022-12-24T05:22:02.058Z,0
2022-12-24T05:23:18.359Z,0
2022-12-24T05:24:34.641Z,0
2022-12-24T05:25:50.931Z,0
2022-12-24T05:27:07.225Z,0
2022-12-24T05:28:23.525Z,0
2022-12-24T05:29:39.810Z,0
2022-12-24T05:30:56.117Z,0
2022-12-24T05:32:11.415Z,0
2022-12-24T05:33:27.714Z,0
2022-12-24T05:34:43.997Z,0
2022-12-24T05:36:00.302Z,0
2022-12-24T05:37:16.586Z,0
2022-12-24T05:38:32.877Z,0
2022-12-24T05:39:49.187Z,0
2022-12-24T05:41:05.466Z,0
2022-12-24T05:42:21.754Z,0
2022-12-24T05:43:38.051Z,0
2022-12-24T05:44:54.348Z,0
2022-12-24T05:46:10.633Z,0
2022-12-24T05:47:26.929Z,0
2022-12-24T05:48:42.250Z,0
2022-12-24T05:49:58.525Z,0
2022-12-24T05:51:14.826Z,0
2022-12-24T05:52:31.129Z,0
2022-12-24T05:53:47.416Z,0
2022-12-24T05:55:03.704Z,0
2022-12-24T05:56:20.006Z,0
2022-12-24T05:57:36.284Z,0
2022-12-24T05:58:52.594Z,0
2022-12-24T06:00:08.887Z,0
2022-12-24T06:01:25.167Z,0
2022-12-24T06:02:41.469Z,0
2022-12-24T06:03:57.757Z,0
2022-12-24T06:05:13.060Z,0
2022-12-24T06:06:29.353Z,0
2022-12-24T06:07:45.650Z,0
2022-12-24T06:09:01.954Z,0
2022-12-24T06:10:18.229Z,0
2022-12-24T06:11:34.527Z,0
2022-12-24T06:12:50.818Z,0
2022-12-24T06:14:07.121Z,0
2022-12-24T06:15:23.407Z,0
2022-12-24T06:16:39.708Z,0
2022-12-24T06:17:55.990Z,0
2022-12-24T06:19:12.288Z,0
2022-12-24T06:20:28.585Z,0
2022-12-24T06:21:43.893Z,0
2022-12-24T06:23:00.171Z,0
2022-12-24T06:24:16.470Z,0
2022-12-24T06:25:32.767Z,0
2022-12-24T06:26:49.055Z,0
2022-12-24T06:28:05.356Z,0
2022-12-24T06:29:21.652Z,0
2022-12-24T06:30:37.933Z,0
2022-12-24T06:31:54.234Z,0
2022-12-24T06:33:10.528Z,0
2022-12-24T06:34:26.819Z,0
2022-12-24T06:35:43.106Z,0
2022-12-24T06:36:59.398Z,0
2022-12-24T06:38:14.710Z,0
2022-12-24T06:39:30.999Z,0
2022-12-24T06:40:47.242Z,1
2022-12-24T06:42:03.484Z,1
2022-12-24T06:43:19.722Z,1
2022-12-24T06:44:35.962Z,1
2022-12-24T06:45:52.213Z,2
2022-12-24T06:47:08.456Z,1
2022-12-24T06:48:24.746Z,0
2022-12-24T06:49:40.983Z,2
2022-12-24T06:50:57.224Z,1
2022-12-24T06:52:13.477Z,1
2022-12-24T06:53:29.716Z,5
2022-12-24T06:54:44.954Z,4
2022-12-24T06:56:01.206Z,4
2022-12-24T06:57:17.439Z,8
2022-12-24T06:58:33.681Z,8
2022-12-24T06:59:49.924Z,10
2022-12-24T07:01:06.146Z,13
2022-12-24T07:02:22.402Z,14
2022-12-24T07:03:38.644Z,16
2022-12-24T07:04:54.878Z,17
2022-12-24T07:06:11.117Z,25
2022-12-24T07:07:27.354Z,31
2022-12-24T07:08:43.591Z,32
2022-12-24T07:09:59.836Z,37
2022-12-24T07:11:15.075Z,40
2022-12-24T07:12:31.319Z,40
2022-12-24T07:13:47.569Z,48
2022-12-24T07:15:03.804Z,55
2022-12-24T07:16:20.034Z,65
2022-12-24T07:17:36.268Z,66
2022-12-24T07:18:52.521Z,66
2022-12-24T07:20:08.745Z,69
2022-12-24T07:22:41.227Z,69
2022-12-24T07:23:57.465Z,78
2022-12-24T07:25:13.709Z,93
2022-12-24T07:26:29.945Z,102
2022-12-24T07:27:45.202Z,114
2022-12-24T07:29:01.444Z,137
2022-12-24T07:30:17.689Z,158
2022-12-24T07:31:33.926Z,178
2022-12-24T07:32:50.159Z,199
2022-12-24T07:34:06.388Z,205
2022-12-24T07:35:22.626Z,205
2022-12-24T07:36:38.880Z,221
2022-12-24T07:37:55.117Z,223
2022-12-24T07:39:11.352Z,267
2022-12-24T07:40:27.582Z,280
2022-12-24T07:41:43.830Z,279
2022-12-24T07:43:00.059Z,303
2022-12-24T07:44:15.321Z,299
2022-12-24T07:45:31.570Z,292
2022-12-24T07:46:47.810Z,335
2022-12-24T07:48:04.043Z,346
2022-12-24T07:49:20.289Z,390
2022-12-24T07:50:36.526Z,384
2022-12-24T07:51:52.751Z,402
2022-12-24T07:53:08.999Z,433
2022-12-24T07:54:25.244Z,426
2022-12-24T07:55:41.485Z,424
2022-12-24T07:56:57.713Z,438
2022-12-24T07:58:13.960Z,431
2022-12-24T07:59:30.192Z,343
2022-12-24T08:00:45.440Z,346
2022-12-24T08:02:01.678Z,463
2022-12-24T08:03:17.000Z,424
2022-12-24T08:04:34.137Z,473
2022-12-24T08:05:50.384Z,473
2022-12-24T08:07:06.609Z,401
2022-12-24T08:08:21.883Z,415
2022-12-24T08:09:38.116Z,520
2022-12-24T08:10:54.360Z,587
2022-12-24T08:12:10.597Z,588
2022-12-24T08:13:26.830Z,457
2022-12-24T08:14:43.073Z,418
2022-12-24T08:15:59.307Z,461
2022-12-24T08:17:15.543Z,205
2022-12-24T08:18:31.782Z,891
2022-12-24T08:19:48.019Z,587
2022-12-24T08:21:04.263Z,536
2022-12-24T08:22:20.509Z,515
2022-12-24T08:23:36.747Z,582
2022-12-24T08:24:52.006Z,584
2022-12-24T08:26:08.227Z,260
2022-12-24T08:27:24.480Z,960
2022-12-24T08:28:40.709Z,761
2022-12-24T08:29:56.943Z,756
2022-12-24T08:31:13.192Z,793
2022-12-24T08:32:29.433Z,440
2022-12-24T08:33:45.674Z,794
2022-12-24T08:35:01.918Z,272
2022-12-24T08:36:18.154Z,431
2022-12-24T08:37:34.394Z,597
2022-12-24T08:38:50.625Z,606
2022-12-24T08:40:06.860Z,636
2022-12-24T08:41:22.118Z,659
2022-12-24T08:42:38.350Z,1485
2022-12-24T08:43:54.588Z,815
2022-12-24T08:45:10.844Z,911
2022-12-24T08:46:27.069Z,942
2022-12-24T08:47:43.301Z,847
2022-12-24T08:48:59.561Z,1111
2022-12-24T08:50:15.786Z,527
2022-12-24T08:51:32.019Z,870
2022-12-24T08:52:48.260Z,1389
2022-12-24T08:54:04.507Z,681
2022-12-24T08:55:20.745Z,530
2022-12-24T08:56:36.993Z,1499
2022-12-24T08:57:52.233Z,822
2022-12-24T08:59:08.472Z,275
2022-12-24T09:00:24.708Z,995
2022-12-24T09:01:40.960Z,1449
2022-12-24T09:02:57.189Z,765
2022-12-24T09:04:13.429Z,467
2022-12-24T09:05:29.668Z,1154
2022-12-24T09:06:45.908Z,1481
2022-12-24T09:08:02.147Z,1583
2022-12-24T09:09:18.384Z,2014
2022-12-24T09:10:34.632Z,1125
2022-12-24T09:11:50.866Z,1599
2022-12-24T09:13:07.104Z,1719
2022-12-24T09:14:22.349Z,1712
2022-12-24T09:15:38.599Z,1769
2022-12-24T09:16:54.837Z,2027
2022-12-24T09:18:11.083Z,1941
2022-12-24T09:19:27.312Z,1500
2022-12-24T09:20:43.545Z,1119
2022-12-24T09:21:59.801Z,351
2022-12-24T09:23:16.020Z,1205
2022-12-24T09:24:32.261Z,1950
2022-12-24T09:25:48.515Z,2171
2022-12-24T09:27:04.746Z,2012
2022-12-24T09:28:20.987Z,1769
2022-12-24T09:29:37.230Z,1898
2022-12-24T09:30:52.471Z,1995
2022-12-24T09:32:08.715Z,1897
2022-12-24T09:33:24.961Z,2276
2022-12-24T09:34:41.191Z,2710
2022-12-24T09:35:57.436Z,2687
2022-12-24T09:37:13.678Z,1208
2022-12-24T09:38:29.907Z,2594
2022-12-24T09:39:46.138Z,1383
2022-12-24T09:41:02.379Z,1119
2022-12-24T09:42:18.625Z,625
2022-12-24T09:43:34.857Z,1070
2022-12-24T09:44:51.112Z,634
2022-12-24T09:46:07.331Z,640
2022-12-24T09:47:22.601Z,585
2022-12-24T09:48:38.823Z,500
2022-12-24T09:49:55.076Z,432
2022-12-24T09:51:11.320Z,435
2022-12-24T09:52:27.545Z,434
2022-12-24T09:53:43.793Z,408
2022-12-24T09:55:00.028Z,413
2022-12-24T09:56:16.267Z,356
2022-12-24T09:57:32.505Z,440
2022-12-24T09:58:48.733Z,426
2022-12-24T10:00:04.982Z,327
2022-12-24T10:01:21.212Z,316
2022-12-24T10:02:37.464Z,291
2022-12-24T10:03:52.706Z,387
2022-12-24T10:05:08.956Z,803
2022-12-24T10:06:25.198Z,755
2022-12-24T10:07:41.432Z,481
2022-12-24T10:08:57.666Z,431
2022-12-24T10:10:13.912Z,967
2022-12-24T10:11:30.153Z,1485
2022-12-24T10:12:46.379Z,1362
2022-12-24T10:14:02.636Z,1108
2022-12-24T10:15:18.000Z,969
2022-12-24T10:16:35.100Z,914
2022-12-24T10:17:51.348Z,961
2022-12-24T10:19:07.590Z,960
2022-12-24T10:20:22.841Z,1058
2022-12-24T10:21:39.073Z,1472
2022-12-24T10:22:55.310Z,2086
2022-12-24T10:24:11.553Z,2511
2022-12-24T10:25:27.793Z,2474
2022-12-24T10:26:44.037Z,2281
2022-12-24T10:28:00.277Z,1550
2022-12-24T10:29:16.503Z,1561
2022-12-24T10:30:32.740Z,1781
2022-12-24T10:31:48.986Z,1580
2022-12-24T10:33:05.226Z,1817
2022-12-24T10:34:21.467Z,1778
2022-12-24T10:35:37.700Z,1849
2022-12-24T10:36:52.960Z,2451
2022-12-24T10:38:09.190Z,2642
2022-12-24T10:39:25.438Z,2487
2022-12-24T10:40:41.659Z,3360
2022-12-24T10:41:57.915Z,2815
2022-12-24T10:43:14.145Z,1867
2022-12-24T10:44:30.385Z,1892
2022-12-24T10:45:46.615Z,1838
2022-12-24T10:47:02.870Z,2018
2022-12-24T10:48:19.096Z,3406
2022-12-24T10:50:51.580Z,2145
2022-12-24T10:52:07.827Z,2180
2022-12-24T10:53:23.078Z,1386
2022-12-24T10:54:39.302Z,2142
2022-12-24T10:55:55.543Z,3102
2022-12-24T10:57:11.778Z,2033
2022-12-24T10:58:28.031Z,1472
2022-12-24T10:59:44.255Z,2044
2022-12-24T11:01:00.514Z,2261
2022-12-24T11:02:16.737Z,2252
2022-12-24T11:03:32.982Z,2190
2022-12-24T11:04:49.229Z,2206
2022-12-24T11:06:05.462Z,1904
2022-12-24T11:07:21.706Z,1469
2022-12-24T11:08:37.943Z,1076
2022-12-24T11:09:53.181Z,786
2022-12-24T11:11:09.428Z,723
2022-12-24T11:12:25.673Z,528
2022-12-24T11:13:41.903Z,496
2022-12-24T11:14:58.147Z,571
2022-12-24T11:16:14.375Z,784
2022-12-24T11:17:30.618Z,1118
2022-12-24T11:18:46.865Z,1180
2022-12-24T11:20:03.096Z,944
2022-12-24T11:21:19.348Z,695
2022-12-24T11:22:35.582Z,587
2022-12-24T11:23:51.815Z,654
2022-12-24T11:25:08.052Z,783
2022-12-24T11:26:23.310Z,1093
2022-12-24T11:27:39.553Z,1283
2022-12-24T11:28:55.792Z,1213
2022-12-24T11:30:12.031Z,1018
2022-12-24T11:31:28.269Z,814
2022-12-24T11:32:44.509Z,692
2022-12-24T11:34:00.747Z,666
2022-12-24T11:35:16.985Z,652
2022-12-24T11:36:33.212Z,677
2022-12-24T11:37:49.451Z,699
2022-12-24T11:39:05.696Z,711
2022-12-24T11:40:21.941Z,939
2022-12-24T11:41:38.164Z,1151
2022-12-24T11:42:53.420Z,1210
2022-12-24T11:44:09.659Z,1237
2022-12-24T11:45:25.908Z,1347
2022-12-24T11:46:42.140Z,1562
2022-12-24T11:47:58.379Z,1714
2022-12-24T11:49:14.616Z,2148
2022-12-24T11:50:30.852Z,2844
2022-12-24T11:51:47.091Z,3392
2022-12-24T11:53:03.336Z,3610
2022-12-24T11:54:19.570Z,3389
2022-12-24T11:55:35.827Z,3348
2022-12-24T11:56:52.059Z,3105
2022-12-24T11:58:08.294Z,3465
2022-12-24T11:59:23.550Z,3874
2022-12-24T12:00:39.795Z,3733
2022-12-24T12:01:56.028Z,3466
2022-12-24T12:03:12.274Z,3430
2022-12-24T12:04:28.503Z,3734
2022-12-24T12:05:44.739Z,3749
2022-12-24T12:07:00.981Z,4063
2022-12-24T12:08:17.226Z,5132
2022-12-24T12:09:33.452Z,5277
2022-12-24T12:10:49.696Z,4089
2022-12-24T12:12:05.932Z,3013
2022-12-24T12:13:22.169Z,1970
2022-12-24T12:14:38.415Z,1612
2022-12-24T12:15:53.666Z,1159
2022-12-24T12:17:09.897Z,867
2022-12-24T12:18:26.155Z,742
2022-12-24T12:19:42.390Z,738
2022-12-24T12:20:58.614Z,660
2022-12-24T12:22:14.870Z,801
2022-12-24T12:23:30.125Z,1047
2022-12-24T12:24:46.353Z,1221
2022-12-24T12:26:02.608Z,1092
2022-12-24T12:27:18.841Z,1105
2022-12-24T12:28:35.078Z,787
2022-12-24T12:29:51.315Z,594
2022-12-24T12:31:07.000Z,713
2022-12-24T12:32:23.795Z,1438
2022-12-24T12:33:40.039Z,977
2022-12-24T12:34:56.267Z,774
2022-12-24T12:36:12.498Z,584
2022-12-24T12:37:28.743Z,1419
2022-12-24T12:38:44.975Z,1962
2022-12-24T12:40:00.245Z,1744
2022-12-24T12:41:16.479Z,2305
2022-12-24T12:42:32.713Z,1310
2022-12-24T12:43:48.955Z,1168
2022-12-24T12:45:05.199Z,902
2022-12-24T12:46:21.442Z,825
2022-12-24T12:47:37.679Z,1129
2022-12-24T12:48:53.919Z,1345
2022-12-24T12:50:10.148Z,1236
2022-12-24T12:51:26.388Z,972
2022-12-24T12:52:42.627Z,587
2022-12-24T12:53:58.857Z,477
2022-12-24T12:55:15.105Z,520
2022-12-24T12:56:30.365Z,517
2022-12-24T12:57:46.606Z,488
2022-12-24T12:59:02.840Z,485
2022-12-24T13:00:19.083Z,487
2022-12-24T13:01:35.310Z,410
2022-12-24T13:02:51.561Z,407
2022-12-24T13:04:07.783Z,411
2022-12-24T13:05:24.023Z,432
2022-12-24T13:06:40.262Z,405
2022-12-24T13:07:56.498Z,443
2022-12-24T13:09:12.747Z,462
2022-12-24T13:10:28.977Z,415
2022-12-24T13:11:45.228Z,355
2022-12-24T13:13:00.477Z,397
2022-12-24T13:14:16.710Z,469
2022-12-24T13:15:32.955Z,475
2022-12-24T13:16:49.201Z,474
2022-12-24T13:18:05.424Z,448
2022-12-24T13:19:21.671Z,386
2022-12-24T13:20:37.910Z,497
2022-12-24T13:21:54.149Z,466
2022-12-24T13:23:10.386Z,327
2022-12-24T13:24:26.625Z,378
2022-12-24T13:25:42.872Z,427
2022-12-24T13:26:59.099Z,387
2022-12-24T13:28:15.346Z,345
2022-12-24T13:29:30.595Z,418
2022-12-24T13:30:46.843Z,452
2022-12-24T13:32:03.064Z,436
2022-12-24T13:33:19.311Z,451
2022-12-24T13:34:35.556Z,439
2022-12-24T13:35:51.790Z,307
2022-12-24T13:37:08.024Z,340
2022-12-24T13:38:24.268Z,394
2022-12-24T13:39:40.501Z,323
2022-12-24T13:40:56.742Z,442
2022-12-24T13:42:12.990Z,315
2022-12-24T13:43:29.217Z,285
2022-12-24T13:44:45.460Z,200
2022-12-24T13:46:00.718Z,168
2022-12-24T13:47:16.953Z,90
2022-12-24T13:48:33.180Z,222
2022-12-24T13:49:49.438Z,241
2022-12-24T13:51:05.663Z,198
2022-12-24T13:52:21.898Z,162
2022-12-24T13:53:38.146Z,127
2022-12-24T13:54:54.393Z,94
2022-12-24T13:56:10.618Z,184
2022-12-24T13:57:26.866Z,227
2022-12-24T13:58:43.105Z,176
2022-12-24T13:59:59.334Z,138
2022-12-24T14:01:15.585Z,148
2022-12-24T14:02:30.836Z,142
2022-12-24T14:03:47.000Z,228
2022-12-24T14:05:03.309Z,252
2022-12-24T14:06:19.550Z,271
2022-12-24T14:07:35.778Z,299
2022-12-24T14:08:52.024Z,365
2022-12-24T14:10:08.264Z,278
2022-12-24T14:11:24.513Z,216
2022-12-24T14:12:40.745Z,167
2022-12-24T14:13:56.971Z,163
2022-12-24T14:15:13.222Z,171
2022-12-24T14:16:29.454Z,180
2022-12-24T14:17:45.687Z,199
2022-12-24T14:19:00.948Z,222
2022-12-24T14:20:17.201Z,193
2022-12-24T14:21:33.430Z,199
2022-12-24T14:22:49.667Z,211
2022-12-24T14:24:05.912Z,215
2022-12-24T14:25:22.138Z,216
2022-12-24T14:26:38.377Z,201
2022-12-24T14:27:54.620Z,177
2022-12-24T14:29:10.855Z,161
2022-12-24T14:30:27.100Z,131
2022-12-24T14:31:43.347Z,91
2022-12-24T14:32:59.585Z,52
2022-12-24T14:34:15.814Z,36
2022-12-24T14:35:31.066Z,67
2022-12-24T14:36:47.310Z,165
2022-12-24T14:38:03.548Z,213
2022-12-24T14:39:19.791Z,207
2022-12-24T14:40:36.032Z,221
2022-12-24T14:41:52.263Z,343
2022-12-24T14:43:08.510Z,458
2022-12-24T14:44:24.745Z,431
2022-12-24T14:45:40.983Z,362
2022-12-24T14:46:57.216Z,321
2022-12-24T14:48:13.460Z,288
2022-12-24T14:49:29.690Z,258
2022-12-24T14:50:45.937Z,224
2022-12-24T14:52:01.197Z,197
2022-12-24T14:53:17.429Z,184
2022-12-24T14:54:33.667Z,179
2022-12-24T14:55:49.918Z,183
2022-12-24T14:57:06.148Z,223
2022-12-24T14:58:22.391Z,183
2022-12-24T14:59:38.624Z,159
2022-12-24T15:00:54.867Z,163
2022-12-24T15:02:11.107Z,153
2022-12-24T15:03:27.353Z,130
2022-12-24T15:04:43.579Z,110
2022-12-24T15:05:59.810Z,87
2022-12-24T15:07:16.055Z,75
2022-12-24T15:08:31.306Z,65
2022-12-24T15:09:47.547Z,61
2022-12-24T15:11:03.801Z,55
2022-12-24T15:12:20.031Z,59
2022-12-24T15:13:36.277Z,56
2022-12-24T15:14:52.507Z,48
2022-12-24T15:16:08.752Z,50
2022-12-24T15:17:24.992Z,52
2022-12-24T15:18:41.217Z,52
2022-12-24T15:19:57.464Z,43
2022-12-24T15:21:13.705Z,38
2022-12-24T15:22:29.951Z,32
2022-12-24T15:23:46.176Z,31
2022-12-24T15:25:01.437Z,26
2022-12-24T15:26:17.670Z,22
2022-12-24T15:27:33.919Z,17
2022-12-24T15:28:50.142Z,14
2022-12-24T15:30:06.384Z,10
2022-12-24T15:31:22.619Z,10
2022-12-24T15:32:38.868Z,7
2022-12-24T15:33:55.112Z,5
2022-12-24T15:35:11.354Z,5
2022-12-24T15:36:27.591Z,2
2022-12-24T15:37:43.829Z,2
2022-12-24T15:39:00.060Z,1
2022-12-24T15:40:16.293Z,1
2022-12-24T15:41:31.562Z,1
2022-12-24T15:42:47.858Z,0
2022-12-24T15:44:04.137Z,0
2022-12-24T15:45:20.436Z,0
2022-12-24T15:46:36.723Z,0
2022-12-24T15:47:53.032Z,0
2022-12-24T15:49:09.325Z,0
2022-12-24T15:50:25.601Z,0
2022-12-24T15:51:41.897Z,0
2022-12-24T15:52:58.190Z,0
2022-12-24T15:54:14.482Z,0
2022-12-24T15:55:30.772Z,0
2022-12-24T15:56:47.066Z,0
2022-12-24T15:58:02.381Z,0
2022-12-24T15:59:18.673Z,0
2022-12-24T16:00:34.961Z,0
2022-12-24T16:01:51.252Z,0
2022-12-24T16:03:07.541Z,0
2022-12-24T16:04:23.832Z,0
2022-12-24T16:05:40.129Z,0
2022-12-24T16:06:56.423Z,0
2022-12-24T16:08:12.717Z,0
2022-12-24T16:09:29.017Z,0
2022-12-24T16:10:45.304Z,0
2022-12-24T16:12:01.604Z,0
2022-12-24T16:13:17.897Z,0
2022-12-24T16:14:33.195Z,0
2022-12-24T16:15:49.494Z,0
2022-12-24T16:17:05.781Z,0
2022-12-24T16:18:22.071Z,0
2022-12-24T16:19:38.363Z,0
2022-12-24T16:20:54.669Z,0
2022-12-24T16:22:10.960Z,0
2022-12-24T16:23:27.250Z,0
2022-12-24T16:24:43.543Z,0
2022-12-24T16:27:16.122Z,0
2022-12-24T16:28:32.409Z,0
2022-12-24T16:29:48.000Z,0
2022-12-24T16:31:04.027Z,0
2022-12-24T16:32:20.305Z,0
2022-12-24T16:33:36.605Z,0
2022-12-24T16:34:52.894Z,0
2022-12-24T16:36:09.201Z,0
2022-12-24T16:37:25.495Z,0
2022-12-24T16:38:40.795Z,0
2022-12-24T16:39:57.089Z,0
2022-12-24T16:41:13.396Z,0
2022-12-24T16:42:29.678Z,0
2022-12-24T16:43:45.969Z,0
2022-12-24T16:45:02.275Z,0
2022-12-24T16:46:18.557Z,0
2022-12-24T16:47:34.850Z,0
2022-12-24T16:48:51.149Z,0
2022-12-24T16:50:07.429Z,0
2022-12-24T16:51:23.739Z,0
2022-12-24T16:52:40.024Z,0
2022-12-24T16:53:56.305Z,0
2022-12-24T16:55:11.631Z,0
2022-12-24T16:56:27.925Z,0
2022-12-24T16:57:44.217Z,0
2022-12-24T16:59:00.499Z,0
2022-12-24T17:00:16.797Z,0
2022-12-24T17:01:33.096Z,0
2022-12-24T17:02:49.391Z,0
2022-12-24T17:04:05.680Z,0
2022-12-24T17:05:21.968Z,0
2022-12-24T17:06:38.252Z,0
2022-12-24T17:07:54.561Z,0
2022-12-24T17:09:10.845Z,0
2022-12-24T17:10:27.131Z,0
2022-12-24T17:11:42.446Z,0
2022-12-24T17:12:58.735Z,0
2022-12-24T17:14:15.025Z,0
2022-12-24T17:15:31.335Z,0
2022-12-24T17:16:47.622Z,0
2022-12-24T17:18:03.917Z,0
2022-12-24T17:19:20.196Z,0
2022-12-24T17:20:36.506Z,0
2022-12-24T17:21:52.801Z,0
2022-12-24T17:23:09.079Z,0
2022-12-24T17:24:25.380Z,0
2022-12-24T17:25:41.679Z,0
2022-12-24T17:26:57.959Z,0
2022-12-24T17:28:13.272Z,0
2022-12-24T17:29:29.566Z,0
2022-12-24T17:30:45.866Z,0
2022-12-24T17:32:02.157Z,0
2022-12-24T17:33:18.437Z,0
2022-12-24T17:34:34.746Z,0
2022-12-24T17:35:51.031Z,0
2022-12-24T17:37:07.317Z,0
2022-12-24T17:38:23.623Z,0
2022-12-24T17:39:39.902Z,0
2022-12-24T17:40:56.207Z,0
2022-12-24T17:42:12.498Z,0
2022-12-24T17:43:28.791Z,0
2022-12-24T17:44:44.097Z,0
2022-12-24T17:46:00.396Z,0
2022-12-24T17:47:16.691Z,0
2022-12-24T17:48:32.965Z,0
2022-12-24T17:49:49.264Z,0
2022-12-24T17:51:05.563Z,0
2022-12-24T17:52:21.850Z,0
2022-12-24T17:53:38.154Z,0
2022-12-24T17:54:54.430Z,0
2022-12-24T17:56:10.723Z,0
2022-12-24T17:57:27.033Z,0
2022-12-24T17:58:43.312Z,0
2022-12-24T17:59:59.614Z,0
2022-12-24T18:01:14.921Z,0
2022-12-24T18:02:31.223Z,0
2022-12-24T18:03:47.505Z,0
2022-12-24T18:05:03.805Z,0
2022-12-24T18:06:20.095Z,0
2022-12-24T18:07:36.395Z,0
2022-12-24T18:08:52.673Z,0
2022-12-24T18:10:08.974Z,0
2022-12-24T18:11:25.267Z,0